Time;durP1;ratioP1;P1;durP2;ratioP2;P2;SDS_P1;SDS_P2;PMS_P1;PMS_P2;Temp;Humidity;BMP_temperature;BMP_pressure;BME280_temperature;BME280_humidity;BME280_pressure;Samples;Min_cycle;Max_cycle;Signal;HPM_P1;HPM_P2
2024/01/29 00:02:16;;;;;;;10.40;9.30;;;;;;;0.46;100.00;102333.38;5043310;28;20140;-73
2024/01/29 00:04:42;;;;;;;10.98;9.52;;;;;;;0.40;100.00;102328.03;5038542;28;20025;-73
2024/01/29 00:07:07;;;;;;;10.77;9.63;;;;;;;0.39;100.00;102331.53;5044547;28;20268;-73
2024/01/29 00:09:32;;;;;;;10.82;9.65;;;;;;;0.37;100.00;102322.75;5043834;28;20026;-74
2024/01/29 00:11:58;;;;;;;12.38;9.93;;;;;;;0.38;100.00;102326.28;5039774;28;20041;-73
2024/01/29 00:14:23;;;;;;;10.63;9.52;;;;;;;0.33;100.00;102325.28;5046678;28;20063;-74
2024/01/29 00:16:49;;;;;;;11.38;9.93;;;;;;;0.28;100.00;102319.13;5043088;28;20102;-74
2024/01/29 00:19:14;;;;;;;10.43;9.40;;;;;;;0.31;100.00;102335.75;5045074;28;20025;-73
2024/01/29 00:21:39;;;;;;;10.95;9.70;;;;;;;0.33;100.00;102328.78;5042736;28;20032;-74
2024/01/29 00:24:05;;;;;;;10.23;9.20;;;;;;;0.28;100.00;102326.97;5026864;28;20059;-74
2024/01/29 00:26:30;;;;;;;11.07;10.00;;;;;;;0.23;100.00;102327.78;5043357;28;20041;-74
2024/01/29 00:28:56;;;;;;;11.98;10.10;;;;;;;0.22;100.00;102314.69;5047501;28;20413;-74
2024/01/29 00:31:23;;;;;;;10.77;9.77;;;;;;;0.31;100.00;102329.66;5038061;28;20284;-73
2024/01/29 00:33:48;;;;;;;10.73;9.63;;;;;;;0.26;100.00;102323.47;5042712;28;20035;-74
2024/01/29 00:36:15;;;;;;;11.98;9.98;;;;;;;0.14;100.00;102314.56;5043124;28;20044;-73
2024/01/29 00:38:40;;;;;;;12.23;10.38;;;;;;;0.31;100.00;102322.66;5042292;28;20036;-73
2024/01/29 00:41:06;;;;;;;12.35;10.10;;;;;;;0.26;100.00;102313.88;5038393;28;20092;-74
2024/01/29 00:43:32;;;;;;;10.80;9.63;;;;;;;0.36;100.00;102323.59;5041137;28;20325;-75
2024/01/29 00:45:58;;;;;;;10.85;9.75;;;;;;;0.41;100.00;102326.28;5052977;28;20116;-74
2024/01/29 00:48:24;;;;;;;11.25;10.15;;;;;;;0.38;100.00;102315.78;5043029;28;20451;-75
2024/01/29 00:50:50;;;;;;;11.77;10.20;;;;;;;0.32;100.00;102324.41;5044090;28;20029;-74
2024/01/29 00:53:16;;;;;;;10.40;9.40;;;;;;;0.35;100.00;102319.22;5039848;28;20044;-74
2024/01/29 00:55:43;;;;;;;13.23;10.27;;;;;;;0.36;100.00;102310.50;5042495;28;20025;-74
2024/01/29 00:58:10;;;;;;;11.60;9.98;;;;;;;0.36;100.00;102300.03;5042663;28;20037;-75
2024/01/29 01:00:35;;;;;;;11.52;10.27;;;;;;;0.44;100.00;102311.50;5042000;28;20028;-73
2024/01/29 01:03:01;;;;;;;11.20;10.05;;;;;;;0.46;100.00;102315.03;5042336;28;20094;-73
2024/01/29 01:05:26;;;;;;;11.73;10.52;;;;;;;0.50;100.00;102318.56;5039413;28;20021;-73
2024/01/29 01:07:51;;;;;;;11.57;10.45;;;;;;;0.49;100.00;102329.91;5044372;28;20502;-73
2024/01/29 01:10:18;;;;;;;13.55;9.98;;;;;;;0.43;100.00;102329.81;5040370;28;20403;-72
2024/01/29 01:12:43;;;;;;;13.93;10.43;;;;;;;0.39;100.00;102331.53;5042718;28;20028;-72
2024/01/29 01:15:08;;;;;;;14.35;10.70;;;;;;;0.41;100.00;102328.91;5044460;28;20033;-72
2024/01/29 01:17:34;;;;;;;12.95;10.25;;;;;;;0.36;100.00;102323.59;5041712;28;20033;-72
2024/01/29 01:19:59;;;;;;;12.68;10.48;;;;;;;0.36;100.00;102331.47;5041855;28;20068;-72
2024/01/29 01:22:25;;;;;;;12.02;10.93;;;;;;;0.24;100.00;102316.44;5041435;28;20025;-72
2024/01/29 01:24:50;;;;;;;12.88;10.25;;;;;;;0.37;100.00;102341.06;5046199;28;20056;-72
2024/01/29 01:27:16;;;;;;;12.18;10.88;;;;;;;0.33;100.00;102344.50;5040178;28;20021;-72
2024/01/29 01:29:43;;;;;;;12.02;10.73;;;;;;;0.34;100.00;102348.03;5021609;28;20035;-72
2024/01/29 01:32:09;;;;;;;11.63;10.27;;;;;;;0.26;100.00;102341.78;5041717;28;20602;-72
2024/01/29 01:34:34;;;;;;;11.57;10.45;;;;;;;0.23;100.00;102335.63;5041864;28;20021;-72
2024/01/29 01:36:59;;;;;;;12.40;10.65;;;;;;;0.22;100.00;102343.47;5041501;28;20029;-72
2024/01/29 01:39:25;;;;;;;12.55;11.25;;;;;;;0.13;100.00;102325.88;5027031;28;20032;-72
2024/01/29 01:41:50;;;;;;;11.77;10.68;;;;;;;0.17;100.00;102347.78;5043552;28;20028;-73
2024/01/29 01:44:16;;;;;;;14.80;11.93;;;;;;;0.18;100.00;102345.16;5041775;28;20562;-73
2024/01/29 01:46:41;;;;;;;11.73;10.60;;;;;;;0.11;100.00;102342.41;5038656;28;20029;-72
2024/01/29 01:49:07;;;;;;;12.35;11.02;;;;;;;0.07;100.00;102349.34;5029939;28;20100;-73
2024/01/29 01:51:33;;;;;;;11.82;10.27;;;;;;;0.02;100.00;102347.50;5042861;28;20537;-73
2024/01/29 01:54:02;;;;;;;11.80;10.70;;;;;;;-0.06;100.00;102356.09;5041167;28;20165;-73
2024/01/29 01:56:28;;;;;;;12.75;10.90;;;;;;;-0.08;100.00;102354.34;5045703;28;20025;-73
2024/01/29 01:58:55;;;;;;;12.40;10.68;;;;;;;-0.09;100.00;102352.56;5026180;28;20048;-73
2024/01/29 02:01:20;;;;;;;12.43;11.15;;;;;;;-0.06;100.00;102360.47;5050282;28;20347;-73
2024/01/29 02:03:46;;;;;;;12.45;11.18;;;;;;;-0.15;100.00;102348.09;5048269;28;20335;-74
2024/01/29 02:06:11;;;;;;;12.40;11.10;;;;;;;-0.15;100.00;102361.19;5049180;28;20020;-73
2024/01/29 02:08:38;;;;;;;12.27;11.07;;;;;;;-0.17;100.00;102344.56;5043590;28;20405;-74
2024/01/29 02:11:04;;;;;;;11.95;10.68;;;;;;;-0.10;100.00;102350.78;5043826;28;20534;-73
2024/01/29 02:13:30;;;;;;;14.18;11.25;;;;;;;-0.09;100.00;102347.31;5042534;28;20525;-74
2024/01/29 02:15:55;;;;;;;12.30;11.05;;;;;;;-0.04;100.00;102343.94;5044339;28;20029;-74
2024/01/29 02:18:20;;;;;;;12.57;11.18;;;;;;;-0.03;100.00;102343.06;5045410;28;20482;-74
2024/01/29 02:20:46;;;;;;;11.73;10.52;;;;;;;0.00;100.00;102347.50;5044126;28;20029;-74
2024/01/29 02:23:11;;;;;;;13.07;11.30;;;;;;;-0.02;100.00;102349.19;5044622;28;20111;-72
2024/01/29 02:25:36;;;;;;;12.18;11.07;;;;;;;-0.06;100.00;102350.88;5044097;28;20052;-74
2024/01/29 02:28:03;;;;;;;13.18;11.73;;;;;;;-0.03;100.00;102348.31;5042022;28;20032;-73
2024/01/29 02:30:28;;;;;;;12.52;11.23;;;;;;;-0.06;100.00;102336.91;5039320;28;20039;-73
2024/01/29 02:32:53;;;;;;;12.63;10.70;;;;;;;-0.12;100.00;102340.31;5044451;28;20028;-73
2024/01/29 02:35:19;;;;;;;12.93;11.65;;;;;;;-0.12;100.00;102342.94;5041485;28;20036;-74
2024/01/29 02:37:44;;;;;;;11.82;10.73;;;;;;;-0.10;100.00;102342.94;5047844;28;20025;-74
2024/01/29 02:40:10;;;;;;;13.18;11.60;;;;;;;-0.09;100.00;102336.84;5046808;28;20474;-74
2024/01/29 02:42:35;;;;;;;13.00;11.70;;;;;;;-0.05;100.00;102336.91;5044451;28;20028;-74
2024/01/29 02:45:03;;;;;;;13.43;12.07;;;;;;;0.10;100.00;102352.00;5045273;28;20479;-74
2024/01/29 02:47:28;;;;;;;12.23;11.02;;;;;;;0.09;100.00;102352.00;5042985;28;20032;-73
2024/01/29 02:49:53;;;;;;;14.85;11.75;;;;;;;-0.04;100.00;102335.22;5042901;28;20094;-73
2024/01/29 02:52:19;;;;;;;13.07;11.65;;;;;;;0.06;100.00;102351.94;5043647;28;20048;-73
2024/01/29 02:54:44;;;;;;;12.73;11.52;;;;;;;0.03;100.00;102346.66;5043405;28;20047;-73
2024/01/29 02:57:09;;;;;;;12.70;11.40;;;;;;;-0.05;100.00;102349.13;5044739;28;20112;-73
2024/01/29 02:59:35;;;;;;;12.25;11.05;;;;;;;-0.08;100.00;102349.97;5043981;28;20032;-73
2024/01/29 03:02:01;;;;;;;13.68;12.10;;;;;;;-0.19;100.00;102345.41;5046365;28;20021;-73
2024/01/29 03:04:26;;;;;;;12.52;11.30;;;;;;;-0.21;100.00;102342.75;5026951;28;20025;-73
2024/01/29 03:06:52;;;;;;;13.35;11.20;;;;;;;-0.30;100.00;102334.75;5044689;28;20130;-73
2024/01/29 03:09:17;;;;;;;13.27;11.98;;;;;;;-0.28;100.00;102335.66;5039803;28;20025;-73
2024/01/29 03:11:43;;;;;;;12.65;11.43;;;;;;;-0.32;100.00;102334.72;5046142;28;20025;-74
2024/01/29 03:14:09;;;;;;;17.75;12.20;;;;;;;-0.34;100.00;102335.53;5044040;28;20028;-73
2024/01/29 03:16:35;;;;;;;12.63;11.32;;;;;;;-0.34;100.00;102346.88;5044816;28;20039;-73
2024/01/29 03:19:01;;;;;;;13.25;11.95;;;;;;;-0.35;100.00;102339.00;5044466;28;20047;-74
2024/01/29 03:21:27;;;;;;;14.25;12.23;;;;;;;-0.40;100.00;102338.06;5043834;28;21189;-74
2024/01/29 03:23:53;;;;;;;13.23;11.73;;;;;;;-0.42;100.00;102342.38;5043066;28;20505;-74
2024/01/29 03:26:19;;;;;;;13.02;11.73;;;;;;;-0.44;100.00;102339.72;5045315;28;20049;-74
2024/01/29 03:28:44;;;;;;;13.75;12.35;;;;;;;-0.46;100.00;102338.84;5048507;28;20032;-73
2024/01/29 03:31:10;;;;;;;13.05;11.68;;;;;;;-0.44;100.00;102333.63;5043620;28;20084;-74
2024/01/29 03:33:35;;;;;;;13.20;11.65;;;;;;;-0.49;100.00;102335.28;5042817;28;20068;-74
2024/01/29 03:36:04;;;;;;;13.35;12.00;;;;;;;-0.42;100.00;102342.38;5043277;28;20471;-73
2024/01/29 03:38:30;;;;;;;13.38;11.93;;;;;;;-0.49;100.00;102341.38;5026175;28;20493;-74
2024/01/29 03:40:55;;;;;;;13.25;11.90;;;;;;;-0.49;100.00;102337.91;5038178;28;20029;-73
2024/01/29 03:43:20;;;;;;;13.68;12.27;;;;;;;-0.47;100.00;102339.66;5043046;28;20126;-73
2024/01/29 03:45:47;;;;;;;12.88;11.73;;;;;;;-0.54;100.00;102338.69;5045307;28;20033;-73
2024/01/29 03:48:13;;;;;;;13.27;11.95;;;;;;;-0.47;100.00;102349.25;5043294;28;20032;-73
2024/01/29 03:50:38;;;;;;;13.85;12.45;;;;;;;-0.51;100.00;102346.56;5043158;28;20028;-73
2024/01/29 03:53:03;;;;;;;12.88;11.57;;;;;;;-0.52;100.00;102342.19;5042997;28;20037;-73
2024/01/29 03:55:29;;;;;;;13.13;11.80;;;;;;;-0.55;100.00;102344.75;5043327;28;20564;-73
2024/01/29 03:57:54;;;;;;;14.48;13.02;;;;;;;-0.52;100.00;102360.50;5043876;28;20036;-73
2024/01/29 04:00:19;;;;;;;15.85;12.20;;;;;;;-0.53;100.00;102352.66;5043264;28;20100;-74
2024/01/29 04:02:46;;;;;;;12.98;11.45;;;;;;;-0.55;100.00;102365.66;5042597;28;20108;-73
2024/01/29 04:05:15;;;;;;;12.82;11.52;;;;;;;-0.57;100.00;102361.28;5043039;28;20063;-73
2024/01/29 04:07:41;;;;;;;14.48;12.15;;;;;;;-0.62;100.00;102360.31;5043356;28;20029;-74
2024/01/29 04:10:07;;;;;;;13.18;11.85;;;;;;;-0.62;100.00;102349.88;5042135;28;20033;-73
2024/01/29 04:12:32;;;;;;;13.88;12.35;;;;;;;-0.65;100.00;102355.03;5043101;28;20388;-73
2024/01/29 04:14:57;;;;;;;14.60;11.85;;;;;;;-0.69;100.00;102341.00;5023470;28;20064;-72
2024/01/29 04:17:23;;;;;;;13.40;12.07;;;;;;;-0.64;100.00;102351.56;5043181;28;20055;-73
2024/01/29 04:19:48;;;;;;;14.85;13.27;;;;;;;-0.63;100.00;102350.69;5043983;28;20151;-73
2024/01/29 04:22:13;;;;;;;13.70;12.35;;;;;;;-0.64;100.00;102351.56;5043431;28;20416;-73
2024/01/29 04:24:39;;;;;;;13.77;12.38;;;;;;;-0.69;100.00;102345.34;5042411;28;20083;-73
2024/01/29 04:27:04;;;;;;;13.13;11.80;;;;;;;-0.74;100.00;102345.28;5043470;28;20103;-73
2024/01/29 04:29:29;;;;;;;13.63;12.23;;;;;;;-0.69;100.00;102354.06;5043185;28;21337;-73
2024/01/29 04:31:55;;;;;;;12.85;11.57;;;;;;;-0.72;100.00;102354.00;5041357;28;20025;-74
2024/01/29 04:34:20;;;;;;;15.18;12.45;;;;;;;-0.73;100.00;102357.47;5042998;28;20448;-73
2024/01/29 04:36:45;;;;;;;13.30;11.90;;;;;;;-0.72;100.00;102359.25;5050266;28;20025;-74
2024/01/29 04:39:11;;;;;;;13.93;12.45;;;;;;;-0.66;100.00;102359.38;5043037;28;20017;-73
2024/01/29 04:41:36;;;;;;;14.05;12.60;;;;;;;-0.68;100.00;102358.44;5042227;28;20060;-73
2024/01/29 04:44:02;;;;;;;14.48;12.02;;;;;;;-0.60;100.00;102359.47;5042875;28;20490;-73
2024/01/29 04:46:28;;;;;;;14.15;12.68;;;;;;;-0.72;100.00;102348.78;5042702;28;20065;-74
2024/01/29 04:48:53;;;;;;;14.68;12.93;;;;;;;-0.64;100.00;102362.88;5042227;28;20061;-73
2024/01/29 04:51:20;;;;;;;14.85;13.20;;;;;;;-0.65;100.00;102366.38;5040992;28;20112;-73
2024/01/29 04:53:45;;;;;;;14.38;12.85;;;;;;;-0.59;100.00;102366.47;5042025;28;20094;-74
2024/01/29 04:56:11;;;;;;;14.32;12.30;;;;;;;-0.67;100.00;102368.09;5042948;28;20025;-73
2024/01/29 04:58:36;;;;;;;13.20;11.80;;;;;;;-0.69;100.00;102364.53;5038804;28;20057;-74
2024/01/29 05:01:03;;;;;;;14.63;12.68;;;;;;;-0.66;100.00;102369.84;5043274;28;20029;-74
2024/01/29 05:03:28;;;;;;;13.55;12.27;;;;;;;-0.73;100.00;102367.94;5042167;28;20017;-73
2024/01/29 05:05:54;;;;;;;13.77;12.27;;;;;;;-0.76;100.00;102370.47;5040875;28;20029;-74
2024/01/29 05:08:19;;;;;;;12.98;11.60;;;;;;;-0.78;100.00;102369.59;5044663;28;20025;-74
2024/01/29 05:10:45;;;;;;;13.32;12.13;;;;;;;-0.76;100.00;102373.97;5040446;28;20106;-74
2024/01/29 05:13:11;;;;;;;14.20;12.77;;;;;;;-0.85;100.00;102371.19;5045725;28;20064;-73
2024/01/29 05:15:37;;;;;;;13.52;12.15;;;;;;;-0.82;100.00;102373.00;5040461;28;20119;-75
2024/01/29 05:18:02;;;;;;;14.48;12.98;;;;;;;-0.82;100.00;102373.00;5042359;28;20052;-73
2024/01/29 05:20:27;;;;;;;14.10;12.00;;;;;;;-0.76;100.00;102373.09;5042834;28;20025;-74
2024/01/29 05:22:53;;;;;;;14.13;12.75;;;;;;;-0.87;100.00;102365.06;5038858;28;20049;-74
2024/01/29 05:25:18;;;;;;;14.13;12.65;;;;;;;-0.87;100.00;102370.28;5038462;28;20510;-73
2024/01/29 05:27:44;;;;;;;13.85;12.35;;;;;;;-0.73;100.00;102372.28;5041554;28;20037;-74
2024/01/29 05:30:09;;;;;;;14.77;13.02;;;;;;;-0.88;100.00;102370.22;5040683;28;20462;-73
2024/01/29 05:32:35;;;;;;;13.90;12.45;;;;;;;-0.80;100.00;102377.38;5021242;28;20732;-73
2024/01/29 05:35:01;;;;;;;13.52;12.13;;;;;;;-0.76;100.00;102379.22;5043564;28;20059;-72
2024/01/29 05:37:26;;;;;;;13.98;12.10;;;;;;;-0.76;100.00;102373.09;5042895;28;20086;-74
2024/01/29 05:39:52;;;;;;;14.70;12.90;;;;;;;-0.77;100.00;102377.44;5040840;28;20040;-74
2024/01/29 05:42:17;;;;;;;13.48;12.10;;;;;;;-0.77;100.00;102376.56;5041566;28;20436;-73
2024/01/29 05:44:43;;;;;;;13.77;12.27;;;;;;;-0.81;100.00;102388.69;5041726;28;20057;-73
2024/01/29 05:47:08;;;;;;;15.25;13.52;;;;;;;-0.79;100.00;102391.38;5046842;28;20043;-73
2024/01/29 05:49:36;;;;;;;16.33;13.48;;;;;;;-0.77;100.00;102382.69;5024608;28;20025;-73
2024/01/29 05:52:02;;;;;;;15.23;13.70;;;;;;;-0.90;100.00;102369.34;5041911;28;20090;-73
2024/01/29 05:54:28;;;;;;;14.30;12.85;;;;;;;-0.91;100.00;102371.06;5037136;28;20032;-73
2024/01/29 05:56:53;;;;;;;15.05;13.57;;;;;;;-0.75;100.00;102387.97;5040703;28;20537;-73
2024/01/29 05:59:19;;;;;;;15.63;13.15;;;;;;;-0.69;100.00;102395.91;5023379;28;20102;-73
2024/01/29 06:01:44;;;;;;;16.02;13.75;;;;;;;-0.78;100.00;102374.81;5039350;28;20040;-74
2024/01/29 06:04:09;;;;;;;15.02;13.32;;;;;;;-0.61;100.00;102386.50;5042317;28;20035;-73
2024/01/29 06:06:37;;;;;;;14.60;12.98;;;;;;;-0.60;100.00;102380.41;5040489;28;20036;-74
2024/01/29 06:09:05;;;;;;;14.15;12.43;;;;;;;-0.57;100.00;102377.84;5045600;28;20102;-74
2024/01/29 06:11:31;;;;;;;14.80;13.05;;;;;;;-0.47;100.00;102385.88;5044037;28;20039;-74
2024/01/29 06:13:57;;;;;;;14.30;12.68;;;;;;;-0.50;100.00;102381.47;5041914;28;20059;-74
2024/01/29 06:16:22;;;;;;;14.75;12.90;;;;;;;-0.49;100.00;102392.81;5041960;28;20025;-74
2024/01/29 06:18:48;;;;;;;15.27;12.60;;;;;;;-0.59;100.00;102390.00;5041896;28;20038;-74
2024/01/29 06:21:14;;;;;;;13.98;12.52;;;;;;;-0.58;100.00;102393.53;5021740;28;20617;-74
2024/01/29 06:23:40;;;;;;;15.73;13.55;;;;;;;-0.53;100.00;102398.00;5045289;28;20028;-74
2024/01/29 06:26:06;;;;;;;14.50;13.13;;;;;;;-0.55;100.00;102406.66;5041853;28;20287;-76
2024/01/29 06:28:31;;;;;;;14.50;12.40;;;;;;;-0.59;100.00;102404.81;5042254;28;20179;-74
2024/01/29 06:30:56;;;;;;;17.10;14.68;;;;;;;-0.57;100.00;102400.50;5041381;28;20029;-76
2024/01/29 06:33:22;;;;;;;16.95;14.18;;;;;;;-0.57;100.00;102396.16;5042355;28;20454;-74
2024/01/29 06:35:47;;;;;;;13.60;12.23;;;;;;;-0.56;100.00;102387.47;5041569;28;20037;-74
2024/01/29 06:38:12;;;;;;;14.80;13.32;;;;;;;-0.52;100.00;102391.91;5044099;28;20416;-74
2024/01/29 06:40:38;;;;;;;13.95;12.48;;;;;;;-0.53;100.00;102381.41;5039142;28;20388;-74
2024/01/29 06:43:07;;;;;;;14.05;12.63;;;;;;;-0.44;100.00;102399.03;5044930;28;20529;-76
2024/01/29 06:45:32;;;;;;;14.55;12.93;;;;;;;-0.43;100.00;102400.78;5047733;28;20499;-76
2024/01/29 06:47:58;;;;;;;13.38;12.00;;;;;;;-0.46;100.00;102406.84;5045231;28;20039;-75
2024/01/29 06:50:23;;;;;;;14.93;13.40;;;;;;;-0.32;100.00;102401.88;5044436;28;20033;-73
2024/01/29 06:52:48;;;;;;;15.15;13.52;;;;;;;-0.33;100.00;102407.97;5043810;28;20027;-73
2024/01/29 06:55:14;;;;;;;15.40;13.30;;;;;;;-0.31;100.00;102398.41;5041959;28;20116;-74
2024/01/29 06:57:39;;;;;;;14.45;12.95;;;;;;;-0.29;100.00;102412.41;5042824;28;20024;-73
2024/01/29 07:00:06;;;;;;;15.65;13.65;;;;;;;-0.33;100.00;102411.47;5041583;28;20040;-73
2024/01/29 07:02:31;;;;;;;16.88;14.43;;;;;;;-0.33;100.00;102411.47;5043191;28;20029;-73
2024/01/29 07:04:57;;;;;;;16.00;14.38;;;;;;;-0.27;100.00;102400.22;5043787;28;20445;-75
2024/01/29 07:07:23;;;;;;;14.70;13.20;;;;;;;-0.22;100.00;102410.75;5050779;28;20491;-74
2024/01/29 07:09:53;;;;;;;15.02;13.52;;;;;;;-0.22;100.00;102422.09;5032844;28;20082;-75
2024/01/29 07:12:19;;;;;;;14.73;13.05;;;;;;;-0.17;100.00;102420.44;5044156;28;20036;-74
2024/01/29 07:14:44;;;;;;;19.58;13.55;;;;;;;-0.08;100.00;102410.19;5044927;28;20094;-76
2024/01/29 07:17:09;;;;;;;15.60;13.20;;;;;;;-0.07;100.00;102413.66;5043697;28;20464;-75
2024/01/29 07:19:34;;;;;;;14.30;12.73;;;;;;;0.01;100.00;102425.16;5044691;28;20487;-75
2024/01/29 07:22:04;;;;;;;15.65;13.15;;;;;;;0.09;100.00;102433.16;5052431;28;20028;-74
2024/01/29 07:24:31;;;;;;;14.32;12.80;;;;;;;-0.01;100.00;102422.50;5044173;28;20044;-74
2024/01/29 07:26:58;;;;;;;15.73;13.40;;;;;;;0.01;100.00;102440.88;5018227;28;20530;-76
2024/01/29 07:29:26;;;;;;;14.60;13.10;;;;;;;-0.01;100.00;102440.81;5046380;28;20268;-75
2024/01/29 07:31:53;;;;;;;15.57;13.45;;;;;;;0.09;100.00;102448.88;5043833;28;20092;-75
2024/01/29 07:34:18;;;;;;;14.10;12.57;;;;;;;0.09;100.00;102443.63;5039950;28;20029;-74
2024/01/29 07:36:44;;;;;;;13.75;12.15;;;;;;;0.05;100.00;102439.19;5039646;28;20171;-76
2024/01/29 07:39:12;;;;;;;13.45;12.15;;;;;;;0.12;100.00;102454.13;5038660;28;20028;-75
2024/01/29 07:41:39;;;;;;;13.57;12.18;;;;;;;0.16;100.00;102456.84;5041406;28;20052;-75
2024/01/29 07:44:04;;;;;;;13.65;12.25;;;;;;;0.22;100.00;102453.47;5043466;28;20435;-75
2024/01/29 07:46:30;;;;;;;13.10;11.80;;;;;;;0.17;100.00;102432.44;5043131;28;20029;-75
2024/01/29 07:48:56;;;;;;;13.57;12.18;;;;;;;0.34;100.00;102452.78;5044311;28;20080;-76
2024/01/29 07:51:21;;;;;;;14.90;12.25;;;;;;;0.44;100.00;102460.81;5043927;28;20021;-75
2024/01/29 07:53:47;;;;;;;13.02;11.50;;;;;;;0.52;100.00;102460.06;5042018;28;20346;-75
2024/01/29 07:56:12;;;;;;;14.90;11.80;;;;;;;0.64;100.00;102455.03;5044079;28;20137;-75
2024/01/29 07:58:38;;;;;;;12.48;11.20;;;;;;;0.65;100.00;102460.28;5048922;28;20112;-75
2024/01/29 08:01:04;;;;;;;12.82;11.63;;;;;;;0.71;100.00;102462.09;5048346;28;20528;-74
2024/01/29 08:03:29;;;;;;;14.23;12.00;;;;;;;0.69;100.00;102458.59;5045164;28;20426;-75
2024/01/29 08:05:54;;;;;;;16.13;13.07;;;;;;;0.76;100.00;102463.09;5044879;28;20032;-74
2024/01/29 08:08:20;;;;;;;15.02;12.05;;;;;;;0.79;100.00;102467.47;5042092;28;20040;-74
2024/01/29 08:10:46;;;;;;;15.90;12.75;;;;;;;0.83;100.00;102462.31;5045198;28;20205;-74
2024/01/29 08:13:11;;;;;;;14.43;12.93;;;;;;;0.88;100.00;102468.50;5041555;28;20025;-74
2024/01/29 08:15:37;;;;;;;15.80;12.55;;;;;;;1.04;100.00;102472.22;5041799;28;20409;-74
2024/01/29 08:18:02;;;;;;;14.52;13.02;;;;;;;1.04;100.00;102466.97;5038214;28;20579;-75
2024/01/29 08:20:28;;;;;;;13.63;12.25;;;;;;;1.15;100.00;102467.13;5042135;28;20051;-73
2024/01/29 08:22:53;;;;;;;13.75;12.13;;;;;;;1.27;100.00;102472.56;5042106;28;20065;-73
2024/01/29 08:25:19;;;;;;;13.55;12.15;;;;;;;1.42;100.00;102474.47;5041573;28;20041;-74
2024/01/29 08:27:45;;;;;;;13.82;12.07;;;;;;;1.59;100.00;102464.19;5039380;28;20124;-74
2024/01/29 08:30:11;;;;;;;13.80;12.25;;;;;;;1.68;100.00;102456.47;5042878;28;20088;-73
2024/01/29 08:32:36;;;;;;;13.48;11.75;;;;;;;1.87;100.00;102468.03;5023593;28;20041;-73
2024/01/29 08:35:02;;;;;;;14.43;11.93;;;;;;;2.06;100.00;102466.50;5040162;28;20040;-74
2024/01/29 08:37:27;;;;;;;13.30;10.95;;;;;;;2.22;100.00;102463.16;5041794;28;20029;-74
2024/01/29 08:39:53;;;;;;;12.18;10.88;;;;;;;2.38;100.00;102457.19;5042565;28;20033;-74
2024/01/29 08:42:18;;;;;;;13.43;10.73;;;;;;;2.53;100.00;102464.28;5041897;28;20029;-72
2024/01/29 08:44:45;;;;;;;12.80;10.07;;;;;;;2.70;100.00;102473.19;5038277;28;20055;-73
2024/01/29 08:47:10;;;;;;;12.07;10.43;;;;;;;2.84;100.00;102473.28;5026889;28;20141;-72
2024/01/29 08:49:36;;;;;;;11.90;10.70;;;;;;;2.96;100.00;102475.13;5047144;28;20461;-72
2024/01/29 08:52:01;;;;;;;11.52;10.38;;;;;;;3.00;100.00;102472.53;5041952;28;20032;-72
2024/01/29 08:54:27;;;;;;;11.50;10.30;;;;;;;3.07;100.00;102467.31;5040905;28;20020;-72
2024/01/29 08:56:52;;;;;;;11.23;10.13;;;;;;;3.10;100.00;102476.09;5041229;28;20032;-72
2024/01/29 08:59:19;;;;;;;11.55;9.85;;;;;;;3.18;100.00;102471.78;5022377;28;20778;-73
2024/01/29 09:01:45;;;;;;;10.65;9.55;;;;;;;3.14;100.00;102464.75;5044988;28;20043;-72
2024/01/29 09:04:10;;;;;;;10.18;9.18;;;;;;;3.15;100.00;102466.50;5039013;28;20453;-72
2024/01/29 09:06:35;;;;;;;8.63;7.82;;;;;;;3.15;100.00;102470.88;5042310;28;20033;-72
2024/01/29 09:09:01;;;;;;;9.77;8.80;;;;;;;3.20;100.00;102470.03;5044320;28;20115;-72
2024/01/29 09:11:26;;;;;;;10.15;8.90;;;;;;;3.25;100.00;102468.28;5022378;28;20037;-68
2024/01/29 09:13:51;;;;;;;8.95;8.05;;;;;;;3.24;100.00;102460.38;5041486;28;20021;-68
2024/01/29 09:16:17;;;;;;;9.35;8.45;;;;;;;3.30;100.00;102459.53;5040711;28;20029;-70
2024/01/29 09:18:42;;;;;;;9.40;7.78;;;;;;;3.34;100.00;102469.19;5042420;28;20065;-68
2024/01/29 09:21:09;;;;;;;9.38;8.45;;;;;;;3.33;100.00;102459.56;5046855;28;20519;-68
2024/01/29 09:23:35;;;;;;;10.20;9.18;;;;;;;3.42;100.00;102465.72;5039581;28;20440;-68
2024/01/29 09:26:00;;;;;;;9.10;8.15;;;;;;;3.44;100.00;102457.88;5031830;28;20152;-68
2024/01/29 09:28:26;;;;;;;11.00;8.60;;;;;;;3.49;100.00;102461.38;5039984;28;20323;-67
2024/01/29 09:30:51;;;;;;;9.02;8.15;;;;;;;3.50;100.00;102455.25;5040239;28;20223;-68
2024/01/29 09:33:19;;;;;;;9.30;8.40;;;;;;;3.58;100.00;102455.28;5041190;28;20391;-68
2024/01/29 09:35:46;;;;;;;10.07;8.35;;;;;;;3.66;100.00;102453.56;5037885;28;20033;-68
2024/01/29 09:38:12;;;;;;;9.90;8.20;;;;;;;3.71;100.00;102467.63;5039559;28;20033;-67
2024/01/29 09:40:38;;;;;;;8.80;7.90;;;;;;;3.81;100.00;102458.88;5040093;28;20021;-68
2024/01/29 09:43:05;;;;;;;12.23;9.52;;;;;;;3.88;100.00;102463.28;5040282;28;20078;-68
2024/01/29 09:45:33;;;;;;;11.57;9.27;;;;;;;4.00;100.00;102465.94;5038609;28;20017;-68
2024/01/29 09:47:59;;;;;;;11.23;10.07;;;;;;;4.04;100.00;102456.28;5039737;28;20063;-68
2024/01/29 09:50:27;;;;;;;10.93;9.82;;;;;;;4.15;100.00;102469.50;5039489;28;20028;-68
2024/01/29 09:52:55;;;;;;;10.98;9.82;;;;;;;4.29;100.00;102473.03;5038057;28;20033;-68
2024/01/29 09:55:23;;;;;;;11.80;9.10;;;;;;;4.39;100.00;102480.06;5039117;28;20029;-69
2024/01/29 09:57:49;;;;;;;9.27;8.20;;;;;;;4.37;100.00;102484.44;5038480;28;20104;-71
2024/01/29 10:00:15;;;;;;;9.73;8.80;;;;;;;4.55;100.00;102488.84;5043194;28;20462;-70
2024/01/29 10:02:44;;;;;;;9.60;8.60;;;;;;;4.58;100.00;102493.25;5040295;28;20032;-70
2024/01/29 10:05:11;;;;;;;9.60;8.43;;;;;;;4.63;100.00;102500.28;5039186;28;20033;-70
2024/01/29 10:07:37;;;;;;;9.88;8.75;;;;;;;4.71;100.00;102498.53;5041617;28;20025;-70
2024/01/29 10:10:07;;;;;;;11.70;10.02;;;;;;;4.74;100.00;102492.38;5025429;28;20218;-70
2024/01/29 10:12:32;;;;;;;10.60;9.55;;;;;;;4.72;100.00;102497.66;5036839;28;20056;-70
2024/01/29 10:14:57;;;;;;;10.82;9.68;;;;;;;4.78;100.00;102496.78;5042506;28;20525;-70
2024/01/29 10:17:24;;;;;;;10.15;9.13;;;;;;;4.84;100.00;102503.81;5044622;28;20086;-69
2024/01/29 10:19:49;;;;;;;11.35;8.65;;;;;;;4.90;100.00;102502.06;5042174;28;20565;-69
2024/01/29 10:22:15;;;;;;;9.85;8.25;;;;;;;4.97;100.00;102498.53;5044958;28;20184;-70
2024/01/29 10:24:40;;;;;;;9.43;8.20;;;;;;;5.06;100.00;102510.84;5037386;28;20045;-70
2024/01/29 10:27:07;;;;;;;10.52;8.30;;;;;;;5.18;100.00;102509.91;5045043;28;20394;-70
2024/01/29 10:29:48;;;;;;;9.43;8.48;;;;;;;5.19;100.00;102502.00;5045728;28;20603;-70
2024/01/29 10:32:14;;;;;;;9.52;8.63;;;;;;;5.30;100.00;102509.00;5042276;28;20116;-70
2024/01/29 10:34:40;;;;;;;9.88;8.43;;;;;;;5.34;100.00;102508.13;5043949;28;20088;-70
2024/01/29 10:37:06;;;;;;;10.02;8.57;;;;;;;5.40;100.00;102506.34;5046981;28;20055;-69
2024/01/29 10:39:34;;;;;;;9.90;8.90;;;;;;;5.49;100.00;102511.59;5043446;28;20025;-69
2024/01/29 10:42:01;;;;;;;9.18;8.25;;;;;;;5.57;100.00;102511.59;5042401;28;20024;-70
2024/01/29 10:44:32;;;;;;;9.70;8.70;;;;;;;5.61;100.00;102501.88;5042528;28;20506;-70
2024/01/29 10:46:59;;;;;;;9.38;8.38;;;;;;;5.74;100.00;102508.88;5041407;28;20025;-69
2024/01/29 10:49:25;;;;;;;10.73;9.07;;;;;;;5.73;100.00;102504.47;5042100;28;20048;-68
2024/01/29 10:51:53;;;;;;;9.10;8.20;;;;;;;5.80;100.00;102500.03;5042869;28;20035;-69
2024/01/29 10:54:20;;;;;;;9.57;8.25;;;;;;;5.84;100.00;102494.72;5045405;28;20044;-70
2024/01/29 10:56:46;;;;;;;9.88;8.60;;;;;;;5.94;100.00;102501.78;5043329;28;20036;-70
2024/01/29 10:59:13;;;;;;;9.82;8.82;;;;;;;5.98;100.00;102506.16;5037453;28;20028;-68
2024/01/29 11:01:38;;;;;;;10.18;8.30;;;;;;;6.08;100.00;102506.97;5040407;28;20426;-69
2024/01/29 11:04:06;;;;;;;9.80;8.60;;;;;;;6.11;100.00;102504.31;5045290;28;20086;-70